sensor_id;sensor_type;location;lat;lon;timestamp;P1;durP1;ratioP1;P2;durP2;ratioP2
65717;SDS011;52445;52.466;-1.016;2023-05-31T00:00:08;1.45;;;1.33;;
65717;SDS011;52445;52.466;-1.016;2023-05-31T00:02:35;1.88;;;0.63;;
65717;SDS011;52445;52.466;-1.016;2023-05-31T00:05:02;1.80;;;0.68;;
65717;SDS011;52445;52.466;-1.016;2023-05-31T00:07:29;1.65;;;1.05;;
65717;SDS011;52445;52.466;-1.016;2023-05-31T00:09:56;1.70;;;1.02;;
65717;SDS011;52445;52.466;-1.016;2023-05-31T00:12:23;2.70;;;1.05;;
65717;SDS011;52445;52.466;-1.016;2023-05-31T00:14:49;1.70;;;1.30;;
65717;SDS011;52445;52.466;-1.016;2023-05-31T00:17:16;2.63;;;0.70;;
65717;SDS011;52445;52.466;-1.016;2023-05-31T00:20:02;1.02;;;0.85;;
65717;SDS011;52445;52.466;-1.016;2023-05-31T00:22:29;1.13;;;1.02;;
65717;SDS011;52445;52.466;-1.016;2023-05-31T00:24:56;1.63;;;0.50;;
65717;SDS011;52445;52.466;-1.016;2023-05-31T00:27:23;1.80;;;0.82;;
65717;SDS011;52445;52.466;-1.016;2023-05-31T00:29:49;1.50;;;0.93;;
65717;SDS011;52445;52.466;-1.016;2023-05-31T00:32:16;3.25;;;0.98;;
65717;SDS011;52445;52.466;-1.016;2023-05-31T00:34:42;1.50;;;0.73;;
65717;SDS011;52445;52.466;-1.016;2023-05-31T00:37:09;1.55;;;0.70;;
65717;SDS011;52445;52.466;-1.016;2023-05-31T00:39:36;1.20;;;0.95;;
65717;SDS011;52445;52.466;-1.016;2023-05-31T00:42:02;3.78;;;0.98;;
65717;SDS011;52445;52.466;-1.016;2023-05-31T00:44:29;1.25;;;0.47;;
65717;SDS011;52445;52.466;-1.016;2023-05-31T00:46:56;4.32;;;1.23;;
65717;SDS011;52445;52.466;-1.016;2023-05-31T00:49:22;1.23;;;1.13;;
65717;SDS011;52445;52.466;-1.016;2023-05-31T00:51:49;1.70;;;1.27;;
65717;SDS011;52445;52.466;-1.016;2023-05-31T00:54:16;1.55;;;1.20;;
65717;SDS011;52445;52.466;-1.016;2023-05-31T00:56:43;1.25;;;0.82;;
65717;SDS011;52445;52.466;-1.016;2023-05-31T00:59:10;3.50;;;1.15;;
65717;SDS011;52445;52.466;-1.016;2023-05-31T01:01:36;2.60;;;0.60;;
65717;SDS011;52445;52.466;-1.016;2023-05-31T01:04:03;1.38;;;0.75;;
65717;SDS011;52445;52.466;-1.016;2023-05-31T01:06:32;6.20;;;1.00;;
65717;SDS011;52445;52.466;-1.016;2023-05-31T01:09:01;1.23;;;0.63;;
65717;SDS011;52445;52.466;-1.016;2023-05-31T01:16:52;1.27;;;0.82;;
65717;SDS011;52445;52.466;-1.016;2023-05-31T01:19:42;2.30;;;0.50;;
65717;SDS011;52445;52.466;-1.016;2023-05-31T01:25:13;1.52;;;0.52;;
65717;SDS011;52445;52.466;-1.016;2023-05-31T01:28:00;1.58;;;0.77;;
65717;SDS011;52445;52.466;-1.016;2023-05-31T01:30:32;3.13;;;0.50;;
65717;SDS011;52445;52.466;-1.016;2023-05-31T01:32:59;1.10;;;0.52;;
65717;SDS011;52445;52.466;-1.016;2023-05-31T01:35:26;1.05;;;0.70;;
65717;SDS011;52445;52.466;-1.016;2023-05-31T01:37:53;2.42;;;0.55;;
65717;SDS011;52445;52.466;-1.016;2023-05-31T01:40:20;1.10;;;0.68;;
65717;SDS011;52445;52.466;-1.016;2023-05-31T01:42:47;2.20;;;0.50;;
65717;SDS011;52445;52.466;-1.016;2023-05-31T01:45:16;1.33;;;0.68;;
65717;SDS011;52445;52.466;-1.016;2023-05-31T01:47:45;1.63;;;0.40;;
65717;SDS011;52445;52.466;-1.016;2023-05-31T01:50:13;0.90;;;0.50;;
65717;SDS011;52445;52.466;-1.016;2023-05-31T01:52:41;0.47;;;0.25;;
65717;SDS011;52445;52.466;-1.016;2023-05-31T01:55:08;1.10;;;0.45;;
65717;SDS011;52445;52.466;-1.016;2023-05-31T01:57:36;0.65;;;0.45;;
65717;SDS011;52445;52.466;-1.016;2023-05-31T02:00:06;0.70;;;0.40;;
65717;SDS011;52445;52.466;-1.016;2023-05-31T02:02:40;3.03;;;0.63;;
65717;SDS011;52445;52.466;-1.016;2023-05-31T02:05:08;0.93;;;0.35;;
65717;SDS011;52445;52.466;-1.016;2023-05-31T02:07:39;1.60;;;0.60;;
65717;SDS011;52445;52.466;-1.016;2023-05-31T02:10:07;2.58;;;1.65;;
65717;SDS011;52445;52.466;-1.016;2023-05-31T02:12:35;0.90;;;0.60;;
65717;SDS011;52445;52.466;-1.016;2023-05-31T02:15:02;1.45;;;0.63;;
65717;SDS011;52445;52.466;-1.016;2023-05-31T02:17:29;1.35;;;0.70;;
65717;SDS011;52445;52.466;-1.016;2023-05-31T02:19:59;0.95;;;0.60;;
65717;SDS011;52445;52.466;-1.016;2023-05-31T02:22:26;2.08;;;0.75;;
65717;SDS011;52445;52.466;-1.016;2023-05-31T02:24:52;0.73;;;0.40;;
65717;SDS011;52445;52.466;-1.016;2023-05-31T02:27:19;0.77;;;0.30;;
65717;SDS011;52445;52.466;-1.016;2023-05-31T02:29:46;0.70;;;0.40;;
65717;SDS011;52445;52.466;-1.016;2023-05-31T02:32:12;1.35;;;0.88;;
65717;SDS011;52445;52.466;-1.016;2023-05-31T02:34:39;1.45;;;0.63;;
65717;SDS011;52445;52.466;-1.016;2023-05-31T02:37:05;0.85;;;0.50;;
65717;SDS011;52445;52.466;-1.016;2023-05-31T02:39:32;2.17;;;0.82;;
65717;SDS011;52445;52.466;-1.016;2023-05-31T02:41:59;1.73;;;0.95;;
65717;SDS011;52445;52.466;-1.016;2023-05-31T02:44:26;1.80;;;0.75;;
65717;SDS011;52445;52.466;-1.016;2023-05-31T02:46:52;1.58;;;1.48;;
65717;SDS011;52445;52.466;-1.016;2023-05-31T02:49:20;2.58;;;0.88;;
65717;SDS011;52445;52.466;-1.016;2023-05-31T02:51:47;1.20;;;0.75;;
65717;SDS011;52445;52.466;-1.016;2023-05-31T02:54:13;2.70;;;0.95;;
65717;SDS011;52445;52.466;-1.016;2023-05-31T02:56:40;1.27;;;0.75;;
65717;SDS011;52445;52.466;-1.016;2023-05-31T02:59:07;1.85;;;1.20;;
65717;SDS011;52445;52.466;-1.016;2023-05-31T03:01:33;2.58;;;0.80;;
65717;SDS011;52445;52.466;-1.016;2023-05-31T03:04:00;3.17;;;0.65;;
65717;SDS011;52445;52.466;-1.016;2023-05-31T03:06:27;2.22;;;0.88;;
65717;SDS011;52445;52.466;-1.016;2023-05-31T03:08:54;2.78;;;1.50;;
65717;SDS011;52445;52.466;-1.016;2023-05-31T03:11:21;1.55;;;0.65;;
65717;SDS011;52445;52.466;-1.016;2023-05-31T03:13:48;1.15;;;0.73;;
65717;SDS011;52445;52.466;-1.016;2023-05-31T03:16:15;2.70;;;0.80;;
65717;SDS011;52445;52.466;-1.016;2023-05-31T03:18:43;5.45;;;0.73;;
65717;SDS011;52445;52.466;-1.016;2023-05-31T03:21:09;1.58;;;0.73;;
65717;SDS011;52445;52.466;-1.016;2023-05-31T03:23:36;2.67;;;1.00;;
65717;SDS011;52445;52.466;-1.016;2023-05-31T03:26:03;1.73;;;0.82;;
65717;SDS011;52445;52.466;-1.016;2023-05-31T03:28:30;2.78;;;0.70;;
65717;SDS011;52445;52.466;-1.016;2023-05-31T03:30:57;0.88;;;0.65;;
65717;SDS011;52445;52.466;-1.016;2023-05-31T03:33:24;3.50;;;1.45;;
65717;SDS011;52445;52.466;-1.016;2023-05-31T03:35:50;2.33;;;0.93;;
65717;SDS011;52445;52.466;-1.016;2023-05-31T03:38:17;1.80;;;0.70;;
65717;SDS011;52445;52.466;-1.016;2023-05-31T03:40:44;3.17;;;0.60;;
65717;SDS011;52445;52.466;-1.016;2023-05-31T03:43:10;1.88;;;0.60;;
65717;SDS011;52445;52.466;-1.016;2023-05-31T03:45:37;1.85;;;1.10;;
65717;SDS011;52445;52.466;-1.016;2023-05-31T03:48:03;1.95;;;0.95;;
65717;SDS011;52445;52.466;-1.016;2023-05-31T03:50:30;1.02;;;0.40;;
65717;SDS011;52445;52.466;-1.016;2023-05-31T03:52:57;2.30;;;0.63;;
65717;SDS011;52445;52.466;-1.016;2023-05-31T03:55:24;1.88;;;0.65;;
65717;SDS011;52445;52.466;-1.016;2023-05-31T03:57:51;0.82;;;0.47;;
65717;SDS011;52445;52.466;-1.016;2023-05-31T04:00:18;0.90;;;0.50;;
65717;SDS011;52445;52.466;-1.016;2023-05-31T04:02:44;2.17;;;0.90;;
65717;SDS011;52445;52.466;-1.016;2023-05-31T04:05:29;3.65;;;2.83;;
65717;SDS011;52445;52.466;-1.016;2023-05-31T04:07:56;1.38;;;1.00;;
65717;SDS011;52445;52.466;-1.016;2023-05-31T04:10:23;1.85;;;0.60;;
65717;SDS011;52445;52.466;-1.016;2023-05-31T04:12:50;1.27;;;0.50;;
65717;SDS011;52445;52.466;-1.016;2023-05-31T04:15:16;2.58;;;0.80;;
65717;SDS011;52445;52.466;-1.016;2023-05-31T04:17:43;2.67;;;0.68;;
65717;SDS011;52445;52.466;-1.016;2023-05-31T04:20:10;2.42;;;0.73;;
65717;SDS011;52445;52.466;-1.016;2023-05-31T04:22:38;1.42;;;0.70;;
65717;SDS011;52445;52.466;-1.016;2023-05-31T04:25:04;0.95;;;0.47;;
65717;SDS011;52445;52.466;-1.016;2023-05-31T04:27:31;1.25;;;0.52;;
65717;SDS011;52445;52.466;-1.016;2023-05-31T04:29:59;1.38;;;0.85;;
65717;SDS011;52445;52.466;-1.016;2023-05-31T04:32:27;1.98;;;0.88;;
65717;SDS011;52445;52.466;-1.016;2023-05-31T04:34:56;0.93;;;0.50;;
65717;SDS011;52445;52.466;-1.016;2023-05-31T04:37:24;1.55;;;1.45;;
65717;SDS011;52445;52.466;-1.016;2023-05-31T04:39:52;1.17;;;0.68;;
65717;SDS011;52445;52.466;-1.016;2023-05-31T04:42:19;3.67;;;1.30;;
65717;SDS011;52445;52.466;-1.016;2023-05-31T04:44:46;1.67;;;0.43;;
65717;SDS011;52445;52.466;-1.016;2023-05-31T04:47:13;2.08;;;0.80;;
65717;SDS011;52445;52.466;-1.016;2023-05-31T04:49:41;1.85;;;0.60;;
65717;SDS011;52445;52.466;-1.016;2023-05-31T04:52:20;1.23;;;0.73;;
65717;SDS011;52445;52.466;-1.016;2023-05-31T04:54:49;0.77;;;0.30;;
65717;SDS011;52445;52.466;-1.016;2023-05-31T04:57:15;0.90;;;0.30;;
65717;SDS011;52445;52.466;-1.016;2023-05-31T04:59:42;1.95;;;0.50;;
65717;SDS011;52445;52.466;-1.016;2023-05-31T05:02:09;1.20;;;0.50;;
65717;SDS011;52445;52.466;-1.016;2023-05-31T05:04:35;3.40;;;0.50;;
65717;SDS011;52445;52.466;-1.016;2023-05-31T05:07:02;0.93;;;0.50;;
65717;SDS011;52445;52.466;-1.016;2023-05-31T05:09:29;0.77;;;0.43;;
65717;SDS011;52445;52.466;-1.016;2023-05-31T05:11:55;0.82;;;0.50;;
65717;SDS011;52445;52.466;-1.016;2023-05-31T05:14:22;0.73;;;0.50;;
65717;SDS011;52445;52.466;-1.016;2023-05-31T05:16:49;2.25;;;0.63;;
65717;SDS011;52445;52.466;-1.016;2023-05-31T05:19:16;1.40;;;0.52;;
65717;SDS011;52445;52.466;-1.016;2023-05-31T05:21:42;0.90;;;0.60;;
65717;SDS011;52445;52.466;-1.016;2023-05-31T05:24:09;0.80;;;0.60;;
65717;SDS011;52445;52.466;-1.016;2023-05-31T05:26:36;0.80;;;0.55;;
65717;SDS011;52445;52.466;-1.016;2023-05-31T05:29:05;1.17;;;0.60;;
65717;SDS011;52445;52.466;-1.016;2023-05-31T05:31:31;0.88;;;0.45;;
65717;SDS011;52445;52.466;-1.016;2023-05-31T05:33:58;4.13;;;0.82;;
65717;SDS011;52445;52.466;-1.016;2023-05-31T05:36:25;1.20;;;0.40;;
65717;SDS011;52445;52.466;-1.016;2023-05-31T05:38:52;1.60;;;0.52;;
65717;SDS011;52445;52.466;-1.016;2023-05-31T05:41:18;1.00;;;0.90;;
65717;SDS011;52445;52.466;-1.016;2023-05-31T05:43:45;1.08;;;0.55;;
65717;SDS011;52445;52.466;-1.016;2023-05-31T05:46:12;1.25;;;1.15;;
65717;SDS011;52445;52.466;-1.016;2023-05-31T05:48:39;1.80;;;0.52;;
65717;SDS011;52445;52.466;-1.016;2023-05-31T05:51:06;1.20;;;0.55;;
65717;SDS011;52445;52.466;-1.016;2023-05-31T05:53:32;0.63;;;0.45;;
65717;SDS011;52445;52.466;-1.016;2023-05-31T05:55:59;2.47;;;0.95;;
65717;SDS011;52445;52.466;-1.016;2023-05-31T05:58:26;0.77;;;0.55;;
65717;SDS011;52445;52.466;-1.016;2023-05-31T06:00:52;1.38;;;1.17;;
65717;SDS011;52445;52.466;-1.016;2023-05-31T06:03:19;0.90;;;0.60;;
65717;SDS011;52445;52.466;-1.016;2023-05-31T06:05:46;3.58;;;0.60;;
65717;SDS011;52445;52.466;-1.016;2023-05-31T06:08:13;1.00;;;0.43;;
65717;SDS011;52445;52.466;-1.016;2023-05-31T06:10:39;0.95;;;0.60;;
65717;SDS011;52445;52.466;-1.016;2023-05-31T06:13:07;1.20;;;0.50;;
65717;SDS011;52445;52.466;-1.016;2023-05-31T06:15:34;0.70;;;0.63;;
65717;SDS011;52445;52.466;-1.016;2023-05-31T06:18:00;1.23;;;0.75;;
65717;SDS011;52445;52.466;-1.016;2023-05-31T06:20:27;0.80;;;0.60;;
65717;SDS011;52445;52.466;-1.016;2023-05-31T06:22:53;1.42;;;0.50;;
65717;SDS011;52445;52.466;-1.016;2023-05-31T06:25:21;0.85;;;0.50;;
65717;SDS011;52445;52.466;-1.016;2023-05-31T06:27:49;1.50;;;0.60;;
65717;SDS011;52445;52.466;-1.016;2023-05-31T06:30:15;1.42;;;0.60;;
65717;SDS011;52445;52.466;-1.016;2023-05-31T06:32:42;1.17;;;0.55;;
65717;SDS011;52445;52.466;-1.016;2023-05-31T06:35:09;0.95;;;0.50;;
65717;SDS011;52445;52.466;-1.016;2023-05-31T06:37:36;0.75;;;0.35;;
65717;SDS011;52445;52.466;-1.016;2023-05-31T06:40:03;1.33;;;0.60;;
65717;SDS011;52445;52.466;-1.016;2023-05-31T06:42:31;2.58;;;1.70;;
65717;SDS011;52445;52.466;-1.016;2023-05-31T06:44:57;1.30;;;0.70;;
65717;SDS011;52445;52.466;-1.016;2023-05-31T06:47:24;1.52;;;0.70;;
65717;SDS011;52445;52.466;-1.016;2023-05-31T06:49:51;1.35;;;0.75;;
65717;SDS011;52445;52.466;-1.016;2023-05-31T06:52:18;1.45;;;0.57;;
65717;SDS011;52445;52.466;-1.016;2023-05-31T06:54:44;0.98;;;0.55;;
65717;SDS011;52445;52.466;-1.016;2023-05-31T06:57:11;0.95;;;0.47;;
65717;SDS011;52445;52.466;-1.016;2023-05-31T06:59:38;0.88;;;0.60;;
65717;SDS011;52445;52.466;-1.016;2023-05-31T07:02:04;0.73;;;0.43;;
65717;SDS011;52445;52.466;-1.016;2023-05-31T07:04:32;3.20;;;0.63;;
65717;SDS011;52445;52.466;-1.016;2023-05-31T07:06:59;1.80;;;0.73;;
65717;SDS011;52445;52.466;-1.016;2023-05-31T07:09:26;1.17;;;0.47;;
65717;SDS011;52445;52.466;-1.016;2023-05-31T07:11:52;0.77;;;0.55;;
65717;SDS011;52445;52.466;-1.016;2023-05-31T07:14:19;1.05;;;0.60;;
65717;SDS011;52445;52.466;-1.016;2023-05-31T07:16:46;2.55;;;0.60;;
65717;SDS011;52445;52.466;-1.016;2023-05-31T07:19:12;0.70;;;0.43;;
65717;SDS011;52445;52.466;-1.016;2023-05-31T07:21:39;0.95;;;0.50;;
65717;SDS011;52445;52.466;-1.016;2023-05-31T07:24:06;1.00;;;0.68;;
65717;SDS011;52445;52.466;-1.016;2023-05-31T07:26:32;0.80;;;0.40;;
65717;SDS011;52445;52.466;-1.016;2023-05-31T07:28:59;1.23;;;0.80;;
65717;SDS011;52445;52.466;-1.016;2023-05-31T07:31:26;0.82;;;0.55;;
65717;SDS011;52445;52.466;-1.016;2023-05-31T07:33:52;0.82;;;0.50;;
65717;SDS011;52445;52.466;-1.016;2023-05-31T07:36:20;1.08;;;0.52;;
65717;SDS011;52445;52.466;-1.016;2023-05-31T07:38:46;1.23;;;0.65;;
65717;SDS011;52445;52.466;-1.016;2023-05-31T07:41:13;1.00;;;0.85;;
65717;SDS011;52445;52.466;-1.016;2023-05-31T07:43:40;1.55;;;1.45;;
65717;SDS011;52445;52.466;-1.016;2023-05-31T07:46:07;2.13;;;1.92;;
65717;SDS011;52445;52.466;-1.016;2023-05-31T07:48:34;1.33;;;0.85;;
65717;SDS011;52445;52.466;-1.016;2023-05-31T07:51:00;1.38;;;0.75;;
65717;SDS011;52445;52.466;-1.016;2023-05-31T07:53:27;1.65;;;0.77;;
65717;SDS011;52445;52.466;-1.016;2023-05-31T07:55:54;1.48;;;0.82;;
65717;SDS011;52445;52.466;-1.016;2023-05-31T07:58:21;1.38;;;0.95;;
65717;SDS011;52445;52.466;-1.016;2023-05-31T08:00:47;1.27;;;0.73;;
65717;SDS011;52445;52.466;-1.016;2023-05-31T08:03:16;2.22;;;1.13;;
65717;SDS011;52445;52.466;-1.016;2023-05-31T08:05:43;1.40;;;0.88;;
65717;SDS011;52445;52.466;-1.016;2023-05-31T08:08:11;2.83;;;0.77;;
65717;SDS011;52445;52.466;-1.016;2023-05-31T08:10:39;1.55;;;0.85;;
65717;SDS011;52445;52.466;-1.016;2023-05-31T08:13:06;1.67;;;0.60;;
65717;SDS011;52445;52.466;-1.016;2023-05-31T08:15:32;1.83;;;0.77;;
65717;SDS011;52445;52.466;-1.016;2023-05-31T08:17:59;0.75;;;0.63;;
65717;SDS011;52445;52.466;-1.016;2023-05-31T08:20:26;0.95;;;0.73;;
65717;SDS011;52445;52.466;-1.016;2023-05-31T08:22:56;1.20;;;0.55;;
65717;SDS011;52445;52.466;-1.016;2023-05-31T08:25:22;1.23;;;0.60;;
65717;SDS011;52445;52.466;-1.016;2023-05-31T08:27:50;1.52;;;0.50;;
65717;SDS011;52445;52.466;-1.016;2023-05-31T08:30:16;1.17;;;0.80;;
65717;SDS011;52445;52.466;-1.016;2023-05-31T08:32:43;1.27;;;1.17;;
65717;SDS011;52445;52.466;-1.016;2023-05-31T08:35:10;1.10;;;0.65;;
65717;SDS011;52445;52.466;-1.016;2023-05-31T08:37:37;2.25;;;0.60;;
65717;SDS011;52445;52.466;-1.016;2023-05-31T08:40:05;1.98;;;0.60;;
65717;SDS011;52445;52.466;-1.016;2023-05-31T08:45:09;1.83;;;1.52;;
65717;SDS011;52445;52.466;-1.016;2023-05-31T08:47:39;1.33;;;1.23;;
65717;SDS011;52445;52.466;-1.016;2023-05-31T08:50:10;3.63;;;1.98;;
65717;SDS011;52445;52.466;-1.016;2023-05-31T08:52:38;1.85;;;1.75;;
65717;SDS011;52445;52.466;-1.016;2023-05-31T08:55:06;1.55;;;1.45;;
65717;SDS011;52445;52.466;-1.016;2023-05-31T08:57:34;1.98;;;1.77;;
65717;SDS011;52445;52.466;-1.016;2023-05-31T09:00:02;2.15;;;1.85;;
65717;SDS011;52445;52.466;-1.016;2023-05-31T09:02:37;1.70;;;1.55;;
65717;SDS011;52445;52.466;-1.016;2023-05-31T09:05:05;1.33;;;1.20;;
65717;SDS011;52445;52.466;-1.016;2023-05-31T09:07:38;1.85;;;1.60;;
65717;SDS011;52445;52.466;-1.016;2023-05-31T09:10:05;2.05;;;1.42;;
65717;SDS011;52445;52.466;-1.016;2023-05-31T09:12:35;1.90;;;1.58;;
65717;SDS011;52445;52.466;-1.016;2023-05-31T09:15:02;3.63;;;1.83;;
65717;SDS011;52445;52.466;-1.016;2023-05-31T09:17:31;4.90;;;1.48;;
65717;SDS011;52445;52.466;-1.016;2023-05-31T09:19:59;1.80;;;1.60;;
65717;SDS011;52445;52.466;-1.016;2023-05-31T09:22:26;1.48;;;1.38;;
65717;SDS011;52445;52.466;-1.016;2023-05-31T09:24:57;3.20;;;2.13;;
65717;SDS011;52445;52.466;-1.016;2023-05-31T09:27:26;1.98;;;1.48;;
65717;SDS011;52445;52.466;-1.016;2023-05-31T09:30:05;3.97;;;2.90;;
65717;SDS011;52445;52.466;-1.016;2023-05-31T09:32:34;3.17;;;1.73;;
65717;SDS011;52445;52.466;-1.016;2023-05-31T09:37:47;4.13;;;1.48;;
65717;SDS011;52445;52.466;-1.016;2023-05-31T09:40:24;2.30;;;1.00;;
65717;SDS011;52445;52.466;-1.016;2023-05-31T09:42:52;2.17;;;1.25;;
65717;SDS011;52445;52.466;-1.016;2023-05-31T09:45:19;2.50;;;1.05;;
65717;SDS011;52445;52.466;-1.016;2023-05-31T09:47:47;1.33;;;0.93;;
65717;SDS011;52445;52.466;-1.016;2023-05-31T09:50:15;2.58;;;1.02;;
65717;SDS011;52445;52.466;-1.016;2023-05-31T09:52:44;3.03;;;0.77;;
65717;SDS011;52445;52.466;-1.016;2023-05-31T09:55:13;2.00;;;0.82;;
65717;SDS011;52445;52.466;-1.016;2023-05-31T09:57:41;1.63;;;0.80;;
65717;SDS011;52445;52.466;-1.016;2023-05-31T10:02:47;3.53;;;0.98;;
65717;SDS011;52445;52.466;-1.016;2023-05-31T10:05:16;2.40;;;1.23;;
65717;SDS011;52445;52.466;-1.016;2023-05-31T10:07:45;2.95;;;0.90;;
65717;SDS011;52445;52.466;-1.016;2023-05-31T10:10:14;1.63;;;0.70;;
65717;SDS011;52445;52.466;-1.016;2023-05-31T10:15:21;2.22;;;1.15;;
65717;SDS011;52445;52.466;-1.016;2023-05-31T10:17:53;1.20;;;0.70;;
65717;SDS011;52445;52.466;-1.016;2023-05-31T10:20:24;1.45;;;0.77;;
65717;SDS011;52445;52.466;-1.016;2023-05-31T10:22:55;3.13;;;1.08;;
65717;SDS011;52445;52.466;-1.016;2023-05-31T10:25:28;3.40;;;1.48;;
65717;SDS011;52445;52.466;-1.016;2023-05-31T10:28:01;1.45;;;0.80;;
65717;SDS011;52445;52.466;-1.016;2023-05-31T10:30:36;2.15;;;0.65;;
65717;SDS011;52445;52.466;-1.016;2023-05-31T10:33:06;3.60;;;0.73;;
65717;SDS011;52445;52.466;-1.016;2023-05-31T10:35:37;1.52;;;0.88;;
65717;SDS011;52445;52.466;-1.016;2023-05-31T10:38:03;2.25;;;1.02;;
65717;SDS011;52445;52.466;-1.016;2023-05-31T10:40:49;3.53;;;0.90;;
65717;SDS011;52445;52.466;-1.016;2023-05-31T10:43:27;3.70;;;1.40;;
65717;SDS011;52445;52.466;-1.016;2023-05-31T10:46:01;2.33;;;1.17;;
65717;SDS011;52445;52.466;-1.016;2023-05-31T10:51:08;3.20;;;2.47;;
65717;SDS011;52445;52.466;-1.016;2023-05-31T10:53:37;3.97;;;2.67;;
65717;SDS011;52445;52.466;-1.016;2023-05-31T10:56:06;3.92;;;3.00;;
65717;SDS011;52445;52.466;-1.016;2023-05-31T10:58:36;4.63;;;2.55;;
65717;SDS011;52445;52.466;-1.016;2023-05-31T11:01:05;3.90;;;2.60;;
65717;SDS011;52445;52.466;-1.016;2023-05-31T11:06:06;3.65;;;2.42;;
65717;SDS011;52445;52.466;-1.016;2023-05-31T11:08:35;6.15;;;2.92;;
65717;SDS011;52445;52.466;-1.016;2023-05-31T11:14:03;3.45;;;1.90;;
65717;SDS011;52445;52.466;-1.016;2023-05-31T11:16:33;3.22;;;1.00;;
65717;SDS011;52445;52.466;-1.016;2023-05-31T11:24:58;3.33;;;2.28;;
65717;SDS011;52445;52.466;-1.016;2023-05-31T11:27:40;6.03;;;2.35;;
65717;SDS011;52445;52.466;-1.016;2023-05-31T11:30:08;3.70;;;1.83;;
65717;SDS011;52445;52.466;-1.016;2023-05-31T11:35:15;4.82;;;2.85;;
65717;SDS011;52445;52.466;-1.016;2023-05-31T11:37:42;3.70;;;2.58;;
65717;SDS011;52445;52.466;-1.016;2023-05-31T11:40:12;2.85;;;2.03;;
65717;SDS011;52445;52.466;-1.016;2023-05-31T11:42:41;5.65;;;3.22;;
65717;SDS011;52445;52.466;-1.016;2023-05-31T11:45:10;4.70;;;2.97;;
65717;SDS011;52445;52.466;-1.016;2023-05-31T11:47:45;4.97;;;2.58;;
65717;SDS011;52445;52.466;-1.016;2023-05-31T11:50:24;4.38;;;1.88;;
65717;SDS011;52445;52.466;-1.016;2023-05-31T11:52:51;6.45;;;2.13;;
65717;SDS011;52445;52.466;-1.016;2023-05-31T11:55:21;4.95;;;2.13;;
65717;SDS011;52445;52.466;-1.016;2023-05-31T11:57:48;3.78;;;1.70;;
65717;SDS011;52445;52.466;-1.016;2023-05-31T12:00:19;5.68;;;2.15;;
65717;SDS011;52445;52.466;-1.016;2023-05-31T12:02:52;3.88;;;1.85;;
65717;SDS011;52445;52.466;-1.016;2023-05-31T12:05:20;3.17;;;1.50;;
65717;SDS011;52445;52.466;-1.016;2023-05-31T12:07:51;4.05;;;1.65;;
65717;SDS011;52445;52.466;-1.016;2023-05-31T12:10:20;6.13;;;1.50;;
65717;SDS011;52445;52.466;-1.016;2023-05-31T12:12:46;5.78;;;1.92;;
65717;SDS011;52445;52.466;-1.016;2023-05-31T12:15:14;4.18;;;1.25;;
65717;SDS011;52445;52.466;-1.016;2023-05-31T12:17:42;2.75;;;1.80;;
65717;SDS011;52445;52.466;-1.016;2023-05-31T12:20:09;4.57;;;1.65;;
65717;SDS011;52445;52.466;-1.016;2023-05-31T12:22:39;3.35;;;1.65;;
65717;SDS011;52445;52.466;-1.016;2023-05-31T12:25:06;5.10;;;2.05;;
65717;SDS011;52445;52.466;-1.016;2023-05-31T12:27:33;3.13;;;1.60;;
65717;SDS011;52445;52.466;-1.016;2023-05-31T12:30:15;5.25;;;2.00;;
65717;SDS011;52445;52.466;-1.016;2023-05-31T12:32:44;4.97;;;2.10;;
65717;SDS011;52445;52.466;-1.016;2023-05-31T12:35:12;3.85;;;1.65;;
65717;SDS011;52445;52.466;-1.016;2023-05-31T12:37:40;5.45;;;2.15;;
65717;SDS011;52445;52.466;-1.016;2023-05-31T12:40:07;4.22;;;2.17;;
65717;SDS011;52445;52.466;-1.016;2023-05-31T12:42:36;5.07;;;1.63;;
65717;SDS011;52445;52.466;-1.016;2023-05-31T12:45:06;9.02;;;2.10;;
65717;SDS011;52445;52.466;-1.016;2023-05-31T12:47:34;5.60;;;2.40;;
65717;SDS011;52445;52.466;-1.016;2023-05-31T12:50:03;6.43;;;2.15;;
65717;SDS011;52445;52.466;-1.016;2023-05-31T12:52:33;5.63;;;2.33;;
65717;SDS011;52445;52.466;-1.016;2023-05-31T12:55:01;5.03;;;1.63;;
65717;SDS011;52445;52.466;-1.016;2023-05-31T12:57:28;4.07;;;1.73;;
65717;SDS011;52445;52.466;-1.016;2023-05-31T12:59:58;5.13;;;2.20;;
65717;SDS011;52445;52.466;-1.016;2023-05-31T13:02:27;6.10;;;2.45;;
65717;SDS011;52445;52.466;-1.016;2023-05-31T13:04:54;8.38;;;2.35;;
65717;SDS011;52445;52.466;-1.016;2023-05-31T13:07:24;4.00;;;2.42;;
65717;SDS011;52445;52.466;-1.016;2023-05-31T13:09:50;5.97;;;2.17;;
65717;SDS011;52445;52.466;-1.016;2023-05-31T13:12:17;4.80;;;1.92;;
65717;SDS011;52445;52.466;-1.016;2023-05-31T13:14:44;7.22;;;2.42;;
65717;SDS011;52445;52.466;-1.016;2023-05-31T13:17:11;5.50;;;2.20;;
65717;SDS011;52445;52.466;-1.016;2023-05-31T13:19:38;3.75;;;1.98;;
65717;SDS011;52445;52.466;-1.016;2023-05-31T13:22:06;4.13;;;2.08;;
65717;SDS011;52445;52.466;-1.016;2023-05-31T13:24:33;4.43;;;2.40;;
65717;SDS011;52445;52.466;-1.016;2023-05-31T13:27:00;4.25;;;2.03;;
65717;SDS011;52445;52.466;-1.016;2023-05-31T13:29:29;3.30;;;2.13;;
65717;SDS011;52445;52.466;-1.016;2023-05-31T13:31:56;3.97;;;1.88;;
65717;SDS011;52445;52.466;-1.016;2023-05-31T13:34:24;5.97;;;2.03;;
65717;SDS011;52445;52.466;-1.016;2023-05-31T13:36:51;4.80;;;2.20;;
65717;SDS011;52445;52.466;-1.016;2023-05-31T13:39:18;4.10;;;1.90;;
65717;SDS011;52445;52.466;-1.016;2023-05-31T13:41:45;4.72;;;2.28;;
65717;SDS011;52445;52.466;-1.016;2023-05-31T13:44:12;3.88;;;2.35;;
65717;SDS011;52445;52.466;-1.016;2023-05-31T13:46:42;5.97;;;2.08;;
65717;SDS011;52445;52.466;-1.016;2023-05-31T13:49:09;4.95;;;2.30;;
65717;SDS011;52445;52.466;-1.016;2023-05-31T13:51:36;4.22;;;2.08;;
65717;SDS011;52445;52.466;-1.016;2023-05-31T13:54:03;4.03;;;2.25;;
65717;SDS011;52445;52.466;-1.016;2023-05-31T13:56:30;6.13;;;2.03;;
65717;SDS011;52445;52.466;-1.016;2023-05-31T13:58:57;3.35;;;1.60;;
65717;SDS011;52445;52.466;-1.016;2023-05-31T14:01:26;6.35;;;2.40;;
65717;SDS011;52445;52.466;-1.016;2023-05-31T14:03:52;5.60;;;2.13;;
65717;SDS011;52445;52.466;-1.016;2023-05-31T14:06:20;3.53;;;1.40;;
65717;SDS011;52445;52.466;-1.016;2023-05-31T14:08:47;5.38;;;1.50;;
65717;SDS011;52445;52.466;-1.016;2023-05-31T14:11:14;4.90;;;2.10;;
65717;SDS011;52445;52.466;-1.016;2023-05-31T14:13:41;5.15;;;2.25;;
65717;SDS011;52445;52.466;-1.016;2023-05-31T14:16:08;5.93;;;2.03;;
65717;SDS011;52445;52.466;-1.016;2023-05-31T14:18:34;3.67;;;1.55;;
65717;SDS011;52445;52.466;-1.016;2023-05-31T14:21:01;3.13;;;1.60;;
65717;SDS011;52445;52.466;-1.016;2023-05-31T14:23:29;4.72;;;1.98;;
65717;SDS011;52445;52.466;-1.016;2023-05-31T14:25:55;5.13;;;2.40;;
65717;SDS011;52445;52.466;-1.016;2023-05-31T14:28:22;4.30;;;2.40;;
65717;SDS011;52445;52.466;-1.016;2023-05-31T14:30:48;4.53;;;2.20;;
65717;SDS011;52445;52.466;-1.016;2023-05-31T14:33:15;4.75;;;2.28;;
65717;SDS011;52445;52.466;-1.016;2023-05-31T14:35:42;4.03;;;1.98;;
65717;SDS011;52445;52.466;-1.016;2023-05-31T14:38:09;3.08;;;2.38;;
65717;SDS011;52445;52.466;-1.016;2023-05-31T14:40:56;4.10;;;2.50;;
65717;SDS011;52445;52.466;-1.016;2023-05-31T14:43:23;4.78;;;2.17;;
65717;SDS011;52445;52.466;-1.016;2023-05-31T14:45:49;3.55;;;1.80;;
65717;SDS011;52445;52.466;-1.016;2023-05-31T14:48:16;5.68;;;2.42;;
65717;SDS011;52445;52.466;-1.016;2023-05-31T14:50:43;3.63;;;1.98;;
65717;SDS011;52445;52.466;-1.016;2023-05-31T14:53:10;5.60;;;2.72;;
65717;SDS011;52445;52.466;-1.016;2023-05-31T14:55:40;5.78;;;2.53;;
65717;SDS011;52445;52.466;-1.016;2023-05-31T14:58:06;6.82;;;2.20;;
65717;SDS011;52445;52.466;-1.016;2023-05-31T15:00:33;9.38;;;2.22;;
65717;SDS011;52445;52.466;-1.016;2023-05-31T15:02:59;3.47;;;1.60;;
65717;SDS011;52445;52.466;-1.016;2023-05-31T15:05:26;3.20;;;2.17;;
65717;SDS011;52445;52.466;-1.016;2023-05-31T15:07:53;4.70;;;1.80;;
65717;SDS011;52445;52.466;-1.016;2023-05-31T15:10:20;3.65;;;1.75;;
65717;SDS011;52445;52.466;-1.016;2023-05-31T15:12:47;5.40;;;2.00;;